Time;durP1;ratioP1;P1;durP2;ratioP2;P2;SDS_P1;SDS_P2;PMS_P1;PMS_P2;Temp;Humidity;BMP_temperature;BMP_pressure;BME280_temperature;BME280_humidity;BME280_pressure;Samples;Min_cycle;Max_cycle;Signal;HPM_P1;HPM_P2
2021/11/20 00:02:22;;;;;;;10.35;9.45;;;;;;;9.04;87.70;100080.16;5039748;27;103208;-66
2021/11/20 00:04:51;;;;;;;10.68;9.77;;;;;;;8.99;87.83;100074.19;5041027;27;103786;-65
2021/11/20 00:07:20;;;;;;;9.63;8.83;;;;;;;9.25;86.92;100076.53;5042474;27;102757;-69
2021/11/20 00:09:51;;;;;;;9.13;8.32;;;;;;;9.31;86.67;100081.53;5038057;27;103963;-66
2021/11/20 00:12:21;;;;;;;11.73;10.73;;;;;;;9.06;87.18;100086.19;5045520;27;103366;-66
2021/11/20 00:14:51;;;;;;;12.57;11.48;;;;;;;8.68;88.60;100080.81;5046354;27;102550;-66
2021/11/20 00:17:20;;;;;;;10.52;9.63;;;;;;;9.14;87.64;100073.53;5045057;27;103096;-69
2021/11/20 00:19:48;;;;;;;11.15;10.25;;;;;;;9.18;86.86;100078.56;5042528;27;103982;-70
2021/11/20 00:22:20;;;;;;;10.90;10.00;;;;;;;9.19;85.86;100082.06;5042738;27;103208;-70
2021/11/20 00:24:53;;;;;;;9.88;9.07;;;;;;;9.42;85.43;100076.63;5045211;27;102591;-66
2021/11/20 00:27:28;;;;;;;11.07;10.18;;;;;;;9.36;84.97;100076.91;5044264;27;103871;-66
2021/11/20 00:30:02;;;;;;;13.20;12.00;;;;;;;9.09;87.21;100072.88;5040457;27;103195;-66
2021/11/20 00:32:33;;;;;;;14.50;13.15;;;;;;;9.03;86.89;100074.00;5042898;27;102972;-70
2021/11/20 00:35:07;;;;;;;14.07;12.60;;;;;;;9.07;87.18;100070.28;5042068;27;102718;-69
2021/11/20 00:37:39;;;;;;;14.63;13.32;;;;;;;8.73;88.01;100078.81;5041118;27;103922;-66
2021/11/20 00:40:12;;;;;;;14.77;13.50;;;;;;;8.70;89.47;100071.03;5041353;27;103236;-66
2021/11/20 00:42:40;;;;;;;14.07;12.82;;;;;;;8.70;87.79;100073.69;5041675;27;103202;-66
2021/11/20 00:45:13;;;;;;;13.30;12.20;;;;;;;8.56;89.08;100076.06;5040395;27;102709;-66
2021/11/20 00:47:42;;;;;;;11.98;10.98;;;;;;;8.92;88.06;100072.78;5041285;27;102681;-66
2021/11/20 00:50:14;;;;;;;13.43;12.23;;;;;;;8.57;88.42;100072.50;5043039;27;105009;-69
2021/11/20 00:52:43;;;;;;;13.07;11.98;;;;;;;8.38;90.20;100061.03;5043039;27;103286;-70
2021/11/20 00:55:13;;;;;;;12.80;11.70;;;;;;;8.72;88.86;100071.00;5042860;27;103852;-69
2021/11/20 00:57:42;;;;;;;12.60;11.50;;;;;;;8.76;88.38;100062.03;5044408;27;103017;-69
2021/11/20 01:00:16;;;;;;;12.65;11.55;;;;;;;8.80;87.84;100062.75;5043481;27;105973;-69
2021/11/20 01:02:44;;;;;;;11.65;10.65;;;;;;;9.02;87.55;100068.78;5041300;27;103144;-70
2021/11/20 01:05:15;;;;;;;13.70;12.50;;;;;;;8.74;87.28;100064.75;5042739;27;102830;-70
2021/11/20 01:07:45;;;;;;;12.43;11.32;;;;;;;8.96;86.54;100058.50;5043803;27;103032;-70
2021/11/20 01:10:16;;;;;;;11.63;10.63;;;;;;;8.99;86.19;100053.97;5043155;27;104352;-70
2021/11/20 01:12:45;;;;;;;12.02;11.02;;;;;;;9.03;86.09;100060.81;5039038;27;103203;-69
2021/11/20 01:15:18;;;;;;;11.40;10.40;;;;;;;9.11;85.94;100065.75;5042865;27;103290;-69
2021/11/20 01:17:48;;;;;;;12.48;11.38;;;;;;;8.78;87.22;100054.94;5042546;27;103067;-70
2021/11/20 01:20:17;;;;;;;11.77;10.77;;;;;;;8.77;87.67;100057.63;5042974;27;103447;-70
2021/11/20 01:22:57;;;;;;;12.63;11.43;;;;;;;8.78;87.36;100051.44;5038649;27;103441;-69
2021/11/20 01:25:33;;;;;;;12.30;11.30;;;;;;;8.61;89.21;100053.03;5041477;27;102764;-68
2021/11/20 01:28:23;;;;;;;10.75;9.85;;;;;;;8.85;87.93;100048.44;5045697;27;102623;-68
2021/11/20 01:31:12;;;;;;;12.80;11.60;;;;;;;8.85;86.97;100039.69;5046162;27;103352;-69
2021/11/20 01:33:44;;;;;;;12.27;11.17;;;;;;;8.97;86.13;100033.88;5042070;27;102916;-69
2021/11/20 01:36:16;;;;;;;12.82;11.73;;;;;;;8.74;87.58;100035.75;5042289;27;102650;-68
2021/11/20 01:38:46;;;;;;;12.68;11.48;;;;;;;8.72;87.48;100034.97;5041684;27;103878;-69
2021/11/20 01:41:26;;;;;;;12.35;11.25;;;;;;;8.78;87.68;100025.09;5041217;27;103235;-68
2021/11/20 01:44:13;;;;;;;13.70;12.50;;;;;;;8.63;88.75;100021.34;5041330;27;103190;-68
2021/11/20 01:46:47;;;;;;;12.45;11.35;;;;;;;8.59;88.75;100022.38;5042059;27;102660;-69
2021/11/20 01:49:19;;;;;;;12.85;11.65;;;;;;;8.77;87.75;100020.72;5043234;27;104003;-69
2021/11/20 01:51:51;;;;;;;12.82;11.73;;;;;;;8.74;87.19;100017.31;5042761;27;103879;-69
2021/11/20 01:54:29;;;;;;;11.83;10.83;;;;;;;8.86;87.74;100015.06;5039640;27;103513;-69
2021/11/20 01:57:26;;;;;;;11.68;10.65;;;;;;;8.97;85.88;100002.25;5041858;27;103263;-69
2021/11/20 02:00:06;;;;;;;11.88;10.88;;;;;;;9.11;85.67;99999.84;5040689;27;103987;-69
2021/11/20 02:02:55;;;;;;;12.00;11.00;;;;;;;9.23;84.67;99994.84;5031625;27;103435;-69
2021/11/20 02:05:46;;;;;;;12.27;11.18;;;;;;;9.11;85.27;99994.56;5040607;27;103236;-69
2021/11/20 02:08:30;;;;;;;12.45;11.35;;;;;;;9.04;85.37;99991.34;5042428;27;102706;-69
2021/11/20 02:11:04;;;;;;;13.50;12.30;;;;;;;8.67;86.98;99986.88;5039376;27;102983;-69
2021/11/20 02:13:36;;;;;;;13.67;12.37;;;;;;;8.71;87.08;99977.06;5039385;27;103388;-69
2021/11/20 02:16:11;;;;;;;13.18;12.10;;;;;;;8.69;87.20;99976.28;5037783;27;103283;-69
2021/11/20 02:18:43;;;;;;;14.10;12.90;;;;;;;8.73;87.57;99975.19;5041916;27;102621;-69
2021/11/20 02:21:20;;;;;;;12.95;11.85;;;;;;;8.74;87.82;99969.88;5038940;27;102671;-69
2021/11/20 02:23:56;;;;;;;12.70;11.50;;;;;;;8.98;86.27;99967.06;5042578;27;104212;-69
2021/11/20 02:26:27;;;;;;;13.60;12.40;;;;;;;8.92;86.30;99972.59;5040097;27;105554;-69
2021/11/20 02:29:04;;;;;;;13.75;12.55;;;;;;;8.83;86.94;99962.47;5038099;27;102653;-69
2021/11/20 02:31:42;;;;;;;14.75;13.45;;;;;;;8.42;88.67;99959.91;5042881;27;102593;-69
2021/11/20 02:34:13;;;;;;;14.47;13.20;;;;;;;8.43;88.60;99964.25;5033623;27;103470;-69
2021/11/20 02:36:44;;;;;;;14.48;13.18;;;;;;;8.45;88.68;99951.84;5043718;27;103332;-69
2021/11/20 02:39:17;;;;;;;13.75;12.52;;;;;;;8.61;88.46;99952.06;5033424;27;103095;-69
2021/11/20 02:41:48;;;;;;;13.57;12.37;;;;;;;8.71;88.17;99945.44;5038244;27;102868;-69
2021/11/20 02:44:19;;;;;;;12.40;11.35;;;;;;;8.86;87.13;99944.75;5036849;27;105319;-69
2021/11/20 02:46:55;;;;;;;13.30;12.10;;;;;;;9.01;86.16;99940.56;5009507;27;103237;-69
2021/11/20 02:49:23;;;;;;;13.80;12.60;;;;;;;8.79;86.67;99932.75;5001468;28;102802;-69
2021/11/20 02:52:15;;;;;;;12.88;11.70;;;;;;;8.98;86.35;99930.16;5001544;28;102921;-69
2021/11/20 02:54:47;;;;;;;14.63;13.38;;;;;;;8.88;86.05;99926.22;5002891;28;103773;-69
2021/11/20 02:57:22;;;;;;;14.25;12.95;;;;;;;8.90;86.48;99921.75;4998629;28;103239;-69
2021/11/20 02:59:52;;;;;;;15.15;13.75;;;;;;;8.78;86.94;99917.91;5001602;28;102674;-69
2021/11/20 03:02:25;;;;;;;15.98;14.57;;;;;;;8.57;87.23;99930.25;4989307;28;102813;-68
2021/11/20 03:04:54;;;;;;;14.43;13.23;;;;;;;8.84;86.39;99927.31;4999406;28;105082;-69
2021/11/20 03:07:23;;;;;;;16.58;14.98;;;;;;;8.80;86.28;99925.72;5001317;28;105093;-69
2021/11/20 03:09:52;;;;;;;15.88;14.38;;;;;;;8.82;86.70;99919.44;5001985;28;103491;-69
2021/11/20 03:12:25;;;;;;;14.93;13.52;;;;;;;9.04;85.72;99914.88;5020662;27;103074;-68
2021/11/20 03:14:56;;;;;;;12.73;11.63;;;;;;;9.28;84.77;99910.25;4997205;28;105488;-69
2021/11/20 03:17:43;;;;;;;15.38;13.98;;;;;;;9.13;84.18;99905.69;5015432;28;103359;-69
2021/11/20 03:20:18;;;;;;;16.33;14.90;;;;;;;8.97;85.63;99905.56;4998853;28;102629;-70
2021/11/20 03:22:59;;;;;;;15.65;14.25;;;;;;;9.05;85.01;99902.56;4999939;28;104155;-70
2021/11/20 03:25:27;;;;;;;15.88;14.38;;;;;;;8.87;85.88;99900.81;5019691;28;104026;-70
2021/11/20 03:27:58;;;;;;;15.70;14.20;;;;;;;9.02;85.80;99898.28;4992714;28;103224;-69
2021/11/20 03:30:28;;;;;;;13.85;12.65;;;;;;;9.19;85.17;99897.50;5002943;28;102725;-69
2021/11/20 03:32:59;;;;;;;15.40;14.00;;;;;;;9.09;85.23;99894.47;5002929;28;102664;-69
2021/11/20 03:35:29;;;;;;;16.02;14.63;;;;;;;8.95;85.74;99898.66;5000845;28;104441;-70
2021/11/20 03:38:05;;;;;;;15.57;14.13;;;;;;;8.95;86.07;99896.03;5002610;28;103547;-66
2021/11/20 03:40:33;;;;;;;14.55;13.25;;;;;;;9.04;85.63;99898.25;4994855;28;102687;-70
2021/11/20 03:43:02;;;;;;;16.83;15.30;;;;;;;8.98;85.66;99894.06;5003151;28;102820;-70
2021/11/20 03:45:33;;;;;;;15.13;13.83;;;;;;;8.81;86.58;99898.44;5003479;27;104043;-69
2021/11/20 03:48:07;;;;;;;15.20;13.80;;;;;;;8.93;86.46;99889.94;5017427;27;103368;-69
2021/11/20 03:50:37;;;;;;;14.87;13.47;;;;;;;9.04;85.65;99898.25;5006593;28;102871;-70
2021/11/20 03:53:06;;;;;;;16.50;15.00;;;;;;;8.95;85.90;99894.25;5005343;28;102725;-70
2021/11/20 03:55:38;;;;;;;15.33;13.93;;;;;;;9.11;85.22;99883.81;5004123;28;103214;-70
2021/11/20 03:58:07;;;;;;;15.35;13.95;;;;;;;9.03;85.25;99889.47;4995133;28;103318;-68
2021/11/20 04:00:38;;;;;;;15.67;14.17;;;;;;;9.12;85.23;99890.81;5004706;28;102727;-69
2021/11/20 04:03:09;;;;;;;13.02;11.82;;;;;;;9.30;84.87;99889.91;5002801;28;102920;-69
2021/11/20 04:05:40;;;;;;;14.13;12.82;;;;;;;9.32;84.33;99893.31;5002036;28;103301;-70
2021/11/20 04:08:08;;;;;;;14.13;12.83;;;;;;;9.41;83.73;99890.25;4995649;28;103321;-69
2021/11/20 04:10:52;;;;;;;16.10;14.65;;;;;;;9.36;83.80;99879.06;5002949;28;102808;-70
2021/11/20 04:13:20;;;;;;;15.40;14.00;;;;;;;9.32;83.81;99882.78;4999485;28;104068;-70
2021/11/20 04:15:49;;;;;;;17.60;16.00;;;;;;;9.01;84.45;99878.13;5018057;27;103897;-70
2021/11/20 04:18:19;;;;;;;15.50;14.10;;;;;;;9.03;85.79;99875.44;5011998;28;103274;-70
2021/11/20 04:20:48;;;;;;;14.93;13.50;;;;;;;9.20;84.97;99870.22;5024830;28;102727;-69
2021/11/20 04:23:17;;;;;;;15.90;14.47;;;;;;;9.12;85.14;99869.72;5013695;27;103959;-70
2021/11/20 04:25:45;;;;;;;15.57;14.07;;;;;;;9.07;85.25;99874.34;5004844;28;104286;-70
2021/11/20 04:28:14;;;;;;;15.73;14.33;;;;;;;9.04;85.00;99871.88;5018706;28;103430;-70
2021/11/20 04:30:48;;;;;;;15.60;14.20;;;;;;;9.06;85.06;99865.59;5022220;28;102688;-69
2021/11/20 04:33:18;;;;;;;15.80;14.30;;;;;;;9.03;84.61;99871.03;5006780;28;103453;-70
2021/11/20 04:35:49;;;;;;;18.57;16.77;;;;;;;8.60;86.90;99872.16;5005392;28;103187;-69
2021/11/20 04:38:19;;;;;;;14.50;13.20;;;;;;;9.07;86.05;99869.06;5005496;28;103018;-69
2021/11/20 04:40:48;;;;;;;16.53;14.97;;;;;;;9.00;85.50;99873.81;5007577;28;102674;-70
2021/11/20 04:43:17;;;;;;;14.07;12.77;;;;;;;9.21;84.64;99869.25;5007223;28;102679;-69
2021/11/20 04:45:47;;;;;;;17.13;15.52;;;;;;;8.99;84.98;99863.31;5006121;28;104096;-70
2021/11/20 04:48:16;;;;;;;14.13;12.93;;;;;;;9.15;84.62;99864.31;5022288;28;102982;-70
2021/11/20 04:50:55;;;;;;;18.10;16.40;;;;;;;8.79;85.80;99855.47;5004036;28;103159;-69
2021/11/20 04:53:24;;;;;;;16.60;15.10;;;;;;;8.92;86.24;99856.63;5003694;28;103004;-70
2021/11/20 04:55:56;;;;;;;14.38;13.07;;;;;;;9.07;85.46;99845.34;5024607;27;103356;-70
2021/11/20 04:58:27;;;;;;;15.83;14.33;;;;;;;9.13;84.58;99845.03;5007261;28;103574;-70
2021/11/20 05:00:57;;;;;;;14.52;13.23;;;;;;;9.21;83.93;99834.97;5003038;28;102723;-70
2021/11/20 05:03:32;;;;;;;13.93;12.73;;;;;;;9.12;84.97;99840.72;5006759;28;102793;-70
2021/11/20 05:06:04;;;;;;;17.85;16.15;;;;;;;8.31;87.30;99848.91;5006131;28;103227;-69
2021/11/20 05:08:33;;;;;;;17.67;15.87;;;;;;;8.49;87.06;99840.19;5001550;28;103322;-70
2021/11/20 05:11:06;;;;;;;15.37;13.97;;;;;;;8.74;86.97;99835.50;5019754;28;102556;-70
2021/11/20 05:13:55;;;;;;;14.27;13.07;;;;;;;9.08;85.48;99831.25;5017406;28;102737;-70
2021/11/20 05:16:23;;;;;;;16.17;14.70;;;;;;;9.10;84.48;99827.59;5023640;28;103325;-69
2021/11/20 05:18:52;;;;;;;16.50;15.05;;;;;;;8.91;85.79;99823.28;5006077;28;103809;-70
2021/11/20 05:21:32;;;;;;;15.63;14.20;;;;;;;9.05;85.11;99826.13;4999660;28;102918;-69
2021/11/20 05:24:01;;;;;;;15.80;14.30;;;;;;;9.07;85.08;99818.97;5005869;28;102676;-69
2021/11/20 05:26:31;;;;;;;17.55;15.85;;;;;;;8.64;86.18;99825.47;5005793;28;105269;-69
2021/11/20 05:29:05;;;;;;;16.27;14.77;;;;;;;8.59;87.37;99820.38;5004119;28;103262;-69
2021/11/20 05:31:40;;;;;;;16.27;14.77;;;;;;;8.65;86.30;99828.00;5002810;28;102746;-69
2021/11/20 05:34:09;;;;;;;15.40;14.00;;;;;;;8.84;86.60;99817.47;5006911;28;102749;-69
2021/11/20 05:36:38;;;;;;;13.98;12.68;;;;;;;9.12;84.97;99820.47;5004429;28;105247;-69
2021/11/20 05:39:11;;;;;;;15.77;14.37;;;;;;;9.04;84.64;99819.16;5006448;28;105134;-69
2021/11/20 05:41:39;;;;;;;14.27;13.00;;;;;;;9.11;84.93;99818.78;5015725;27;103058;-69
2021/11/20 05:44:11;;;;;;;14.30;13.00;;;;;;;9.11;84.39;99815.28;5002503;28;102815;-69
2021/11/20 05:47:09;;;;;;;13.13;11.93;;;;;;;9.33;83.65;99814.16;5009077;28;103321;-69
2021/11/20 05:49:42;;;;;;;14.95;13.55;;;;;;;9.17;83.37;99805.28;4993489;28;104223;-69
2021/11/20 05:52:16;;;;;;;15.77;14.27;;;;;;;9.07;83.77;99808.44;4999178;28;102872;-69
2021/11/20 05:54:46;;;;;;;14.57;13.27;;;;;;;8.72;87.29;99807.50;5023221;27;102727;-69
2021/11/20 05:57:29;;;;;;;13.03;11.83;;;;;;;9.05;85.16;99805.88;5006499;28;103235;-69
2021/11/20 06:00:13;;;;;;;15.05;13.60;;;;;;;9.08;84.03;99804.88;5006320;28;106179;-69
2021/11/20 06:02:51;;;;;;;14.48;13.18;;;;;;;9.23;83.96;99804.13;5021739;28;102575;-69
2021/11/20 06:05:22;;;;;;;15.00;13.60;;;;;;;9.21;84.18;99800.69;5005480;28;102729;-69
2021/11/20 06:07:51;;;;;;;13.93;12.65;;;;;;;9.31;83.51;99807.25;5013260;27;103301;-68
2021/11/20 06:10:20;;;;;;;14.43;12.98;;;;;;;9.28;83.40;99807.41;4997213;28;103169;-69
2021/11/20 06:12:48;;;;;;;14.77;13.38;;;;;;;9.30;83.18;99805.53;4998924;28;102762;-69
2021/11/20 06:15:18;;;;;;;12.88;11.75;;;;;;;9.30;83.76;99805.53;5003547;28;102948;-69
2021/11/20 06:17:46;;;;;;;14.60;13.20;;;;;;;9.33;83.44;99805.38;5023086;28;103376;-69
2021/11/20 06:20:15;;;;;;;15.43;13.93;;;;;;;9.08;84.34;99804.88;5004441;28;105254;-69
2021/11/20 06:22:44;;;;;;;15.45;14.02;;;;;;;8.87;84.71;99805.94;5001164;28;102691;-68
2021/11/20 06:25:16;;;;;;;13.65;12.45;;;;;;;9.09;84.19;99803.97;5003302;28;103982;-66
2021/11/20 06:27:47;;;;;;;13.70;12.40;;;;;;;9.19;83.52;99810.47;5001185;28;104854;-64
2021/11/20 06:30:19;;;;;;;12.10;11.00;;;;;;;9.32;84.03;99803.66;5001403;28;103245;-68
2021/11/20 06:32:50;;;;;;;15.23;13.73;;;;;;;9.39;82.69;99799.81;4999395;28;103020;-68
2021/11/20 06:35:47;;;;;;;14.15;12.88;;;;;;;9.22;83.23;99802.41;5019180;28;102683;-68
2021/11/20 06:38:24;;;;;;;15.52;14.02;;;;;;;9.14;83.06;99804.59;5001817;28;103877;-68
2021/11/20 06:40:57;;;;;;;14.18;12.88;;;;;;;9.13;84.36;99809.00;5002950;28;103273;-68
2021/11/20 06:43:28;;;;;;;11.20;10.20;;;;;;;9.31;83.82;99807.25;5002027;28;102687;-68
2021/11/20 06:45:58;;;;;;;13.00;11.80;;;;;;;9.35;83.64;99808.78;5000769;28;102766;-67
2021/11/20 06:48:27;;;;;;;12.73;11.55;;;;;;;9.37;83.05;99799.03;4999628;28;103464;-67
2021/11/20 06:51:16;;;;;;;16.02;14.52;;;;;;;9.06;84.34;99801.47;5001414;28;103226;-67
2021/11/20 06:54:12;;;;;;;15.80;14.30;;;;;;;9.09;83.90;99796.06;4986238;27;102676;-67
2021/11/20 06:57:36;;;;;;;17.47;15.77;;;;;;;8.63;85.71;99800.88;5003644;28;102846;-67
2021/11/20 07:00:33;;;;;;;15.93;14.43;;;;;;;8.79;85.28;99797.50;4997986;28;103061;-67
2021/11/20 07:03:04;;;;;;;16.67;15.07;;;;;;;8.74;85.62;99795.97;5012450;28;102966;-67
2021/11/20 07:05:45;;;;;;;16.85;15.15;;;;;;;8.49;86.63;99795.41;5000752;28;103129;-67
2021/11/20 07:08:17;;;;;;;17.58;15.88;;;;;;;8.48;87.06;99801.59;5014427;28;104100;-67
2021/11/20 07:10:50;;;;;;;14.50;13.20;;;;;;;8.81;86.70;99807.09;5013119;28;104006;-67
2021/11/20 07:13:21;;;;;;;16.43;14.83;;;;;;;8.78;85.93;99801.94;5000649;28;102896;-67
2021/11/20 07:15:50;;;;;;;15.65;14.15;;;;;;;8.83;85.83;99804.34;5010915;28;102700;-67
2021/11/20 07:18:18;;;;;;;16.63;14.93;;;;;;;8.63;86.27;99814.06;4999925;28;103780;-67
2021/11/20 07:21:02;;;;;;;15.93;14.43;;;;;;;8.71;85.95;99806.66;5012623;27;103864;-67
2021/11/20 07:23:41;;;;;;;16.87;15.23;;;;;;;8.53;87.27;99810.13;5000571;28;103368;-67
2021/11/20 07:26:10;;;;;;;16.60;15.00;;;;;;;8.74;86.25;99801.25;4992009;28;102685;-67
2021/11/20 07:28:39;;;;;;;15.65;14.20;;;;;;;8.89;86.34;99809.34;5012911;28;102759;-67
2021/11/20 07:31:45;;;;;;;13.52;12.30;;;;;;;9.08;85.27;99812.78;4998445;28;104138;-68
2021/11/20 07:34:14;;;;;;;17.40;15.48;;;;;;;8.68;86.73;99812.06;4990724;28;103770;-68
2021/11/20 07:36:45;;;;;;;13.25;12.02;;;;;;;9.14;85.04;99804.59;4997830;28;103058;-68
2021/11/20 07:39:15;;;;;;;17.20;15.50;;;;;;;9.11;83.72;99800.31;5014800;28;102890;-68
2021/11/20 07:41:45;;;;;;;15.55;14.07;;;;;;;9.27;84.06;99800.41;4996794;28;103331;-68
2021/11/20 07:44:20;;;;;;;15.95;14.35;;;;;;;9.16;84.47;99793.03;4999893;28;105437;-67
2021/11/20 07:46:49;;;;;;;16.25;14.65;;;;;;;9.16;84.44;99797.44;4993484;27;104033;-68
2021/11/20 07:49:17;;;;;;;17.40;15.60;;;;;;;9.00;84.83;99791.22;5011260;28;102728;-68
2021/11/20 07:51:48;;;;;;;15.88;14.27;;;;;;;9.00;86.05;99784.16;4995003;28;103303;-64
2021/11/20 07:54:19;;;;;;;15.00;13.43;;;;;;;9.31;84.47;99788.78;4995043;28;102587;-65
2021/11/20 07:57:07;;;;;;;16.02;14.05;;;;;;;9.36;83.53;99781.50;5019684;27;102848;-68
2021/11/20 07:59:39;;;;;;;16.65;14.95;;;;;;;9.17;84.18;99778.06;5000791;28;102753;-68
2021/11/20 08:02:27;;;;;;;17.37;15.57;;;;;;;9.06;85.35;99777.75;5015142;28;103474;-68
2021/11/20 08:04:55;;;;;;;18.48;16.67;;;;;;;8.60;87.78;99777.31;4997735;28;103219;-68
2021/11/20 08:07:35;;;;;;;18.08;16.27;;;;;;;8.86;86.74;99777.84;4995045;28;102769;-68
2021/11/20 08:10:16;;;;;;;18.50;16.70;;;;;;;8.92;86.46;99774.94;5001414;28;102935;-68
2021/11/20 08:12:46;;;;;;;17.88;16.15;;;;;;;9.10;85.54;99771.38;4996948;28;103283;-68
2021/11/20 08:15:36;;;;;;;17.88;16.17;;;;;;;9.29;84.67;99772.19;5010307;28;103141;-68
2021/11/20 08:18:19;;;;;;;15.43;13.98;;;;;;;9.42;83.82;99769.78;4995642;28;102685;-66
2021/11/20 08:21:27;;;;;;;17.38;15.73;;;;;;;9.26;85.21;99767.91;4987689;28;103384;-66
2021/11/20 08:24:00;;;;;;;17.88;16.08;;;;;;;9.22;85.47;99761.09;4988879;28;104152;-66
2021/11/20 08:26:35;;;;;;;17.77;16.03;;;;;;;9.04;85.80;99753.25;4992309;28;103197;-66
2021/11/20 08:29:06;;;;;;;18.70;16.83;;;;;;;9.13;85.71;99744.88;4987512;28;103982;-66
2021/11/20 08:31:41;;;;;;;20.85;17.52;;;;;;;8.90;85.74;99753.91;4992345;28;102792;-66
2021/11/20 08:34:23;;;;;;;18.65;16.85;;;;;;;9.13;86.40;99742.22;4997947;28;103268;-68
2021/11/20 08:37:14;;;;;;;20.02;17.95;;;;;;;8.93;85.88;99745.00;5000110;28;103224;-68
2021/11/20 08:39:47;;;;;;;19.08;17.10;;;;;;;9.17;85.01;99739.38;5002221;28;102810;-68
2021/11/20 08:42:16;;;;;;;20.20;18.20;;;;;;;8.81;87.03;99738.56;5003904;28;104131;-66
2021/11/20 08:44:46;;;;;;;19.45;17.45;;;;;;;9.01;86.37;99734.94;5001886;28;103403;-66
2021/11/20 08:47:18;;;;;;;19.67;17.67;;;;;;;8.91;86.74;99736.31;5002326;28;102655;-66
2021/11/20 08:49:49;;;;;;;19.35;17.33;;;;;;;9.11;85.44;99736.19;5003320;28;102725;-66
2021/11/20 08:52:17;;;;;;;17.65;15.98;;;;;;;9.45;84.47;99733.56;5004607;27;103079;-66
2021/11/20 08:54:56;;;;;;;19.60;17.38;;;;;;;9.41;83.85;99732.00;5002099;28;103414;-66
2021/11/20 08:57:25;;;;;;;17.77;16.08;;;;;;;9.56;84.21;99725.06;5003409;27;103283;-66
2021/11/20 09:00:10;;;;;;;19.35;17.35;;;;;;;9.35;84.80;99719.09;5006196;28;102787;-67
2021/11/20 09:03:06;;;;;;;20.50;18.47;;;;;;;9.19;85.30;99728.75;5022778;28;103767;-67
2021/11/20 09:05:47;;;;;;;18.10;16.30;;;;;;;9.17;85.56;99725.34;5004390;28;103661;-68
2021/11/20 09:08:20;;;;;;;19.30;17.35;;;;;;;9.28;84.81;99728.28;5004132;28;103192;-67
2021/11/20 09:10:53;;;;;;;19.30;17.42;;;;;;;9.55;83.78;99726.84;5021283;28;103113;-67
2021/11/20 09:13:25;;;;;;;18.13;16.38;;;;;;;9.72;83.67;99723.34;5003824;28;103108;-67
2021/11/20 09:16:00;;;;;;;23.42;21.10;;;;;;;9.31;84.47;99718.44;5002244;28;104028;-67
2021/11/20 09:18:35;;;;;;;23.25;20.75;;;;;;;9.41;84.86;99713.53;5002853;28;103410;-67
2021/11/20 09:21:08;;;;;;;21.30;19.27;;;;;;;9.54;83.99;99714.63;5001487;28;102931;-68
2021/11/20 09:23:59;;;;;;;19.52;17.52;;;;;;;9.59;83.80;99715.22;5019375;28;104708;-68
2021/11/20 09:26:34;;;;;;;19.50;17.52;;;;;;;9.26;85.17;99723.06;5003638;28;104063;-67
2021/11/20 09:29:06;;;;;;;19.63;17.63;;;;;;;9.38;84.12;99718.09;5003953;28;103185;-68
2021/11/20 09:31:40;;;;;;;20.50;18.40;;;;;;;9.58;83.55;99718.78;4979078;28;103155;-67
2021/11/20 09:34:11;;;;;;;18.17;16.30;;;;;;;9.76;83.04;99712.56;4972401;28;102670;-67
2021/11/20 09:36:42;;;;;;;19.50;17.40;;;;;;;9.52;83.63;99715.59;4997417;28;103114;-67
2021/11/20 09:39:20;;;;;;;18.27;16.58;;;;;;;9.60;83.98;99716.09;5019790;28;103981;-69
2021/11/20 09:42:03;;;;;;;16.75;15.15;;;;;;;9.89;82.33;99705.66;5000513;28;102844;-69
2021/11/20 09:44:42;;;;;;;17.30;15.60;;;;;;;9.79;83.73;99708.91;5014411;28;102706;-63
2021/11/20 09:47:15;;;;;;;17.20;15.50;;;;;;;9.76;83.41;99706.41;5012338;27;104241;-69
2021/11/20 09:49:49;;;;;;;16.70;15.07;;;;;;;9.85;83.17;99701.47;4992214;28;103383;-70
2021/11/20 09:52:21;;;;;;;18.50;16.42;;;;;;;9.61;83.78;99702.78;4997455;28;102819;-70
2021/11/20 09:54:51;;;;;;;17.10;15.40;;;;;;;10.05;82.40;99689.00;5019746;28;102797;-69
2021/11/20 09:57:27;;;;;;;15.80;14.30;;;;;;;10.29;81.62;99690.31;5019709;28;103679;-68
2021/11/20 10:00:04;;;;;;;17.70;15.95;;;;;;;9.93;82.29;99694.94;5018243;28;103458;-69
2021/11/20 10:02:48;;;;;;;15.63;13.90;;;;;;;10.10;81.27;99692.25;5012183;28;102604;-68
2021/11/20 10:05:24;;;;;;;15.87;14.37;;;;;;;10.25;82.14;99686.13;5019856;28;102679;-69
2021/11/20 10:08:04;;;;;;;15.47;13.97;;;;;;;10.42;80.59;99678.97;5017624;27;103582;-69
2021/11/20 10:10:36;;;;;;;16.50;14.90;;;;;;;10.23;81.54;99677.47;5016021;28;103208;-69
2021/11/20 10:13:11;;;;;;;15.55;14.05;;;;;;;9.96;83.02;99689.50;4997331;28;102922;-69
2021/11/20 10:15:43;;;;;;;16.23;14.52;;;;;;;9.99;82.07;99678.78;5019140;28;103750;-66
2021/11/20 10:18:22;;;;;;;15.43;13.87;;;;;;;10.16;81.07;99676.94;5016513;28;103294;-66
2021/11/20 10:20:55;;;;;;;15.90;11.27;;;;;;;9.59;83.72;99674.78;5020129;27;103205;-66
2021/11/20 10:23:34;;;;;;;16.23;12.00;;;;;;;9.42;84.81;99666.91;4999295;28;103775;-66
2021/11/20 10:26:14;;;;;;;15.83;12.47;;;;;;;9.52;85.13;99661.06;5022242;28;103444;-66
2021/11/20 10:29:08;;;;;;;11.30;10.03;;;;;;;9.39;84.04;99662.66;5021010;28;103245;-66
2021/11/20 10:31:39;;;;;;;12.80;9.80;;;;;;;9.16;85.80;99661.19;5021886;28;103357;-67
2021/11/20 10:34:21;;;;;;;12.50;10.83;;;;;;;9.25;86.12;99659.88;5019600;27;103032;-65
2021/11/20 10:36:59;;;;;;;9.37;8.13;;;;;;;9.50;85.27;99655.03;5020753;28;102789;-65
2021/11/20 10:39:31;;;;;;;13.90;10.40;;;;;;;9.33;84.88;99645.34;5022311;28;104309;-65
2021/11/20 10:42:03;;;;;;;12.67;9.47;;;;;;;9.20;85.93;99654.84;5002384;28;103335;-65
2021/11/20 10:44:43;;;;;;;11.80;8.70;;;;;;;9.25;85.36;99644.06;4999187;28;102733;-66
2021/11/20 10:47:29;;;;;;;9.40;7.93;;;;;;;9.17;85.66;99649.72;5022987;27;102665;-66
2021/11/20 10:50:17;;;;;;;12.73;9.77;;;;;;;9.25;85.31;99642.28;5016141;28;103184;-66
2021/11/20 10:53:24;;;;;;;11.90;8.83;;;;;;;9.30;85.09;99626.19;5021397;28;103246;-66
2021/11/20 10:56:06;;;;;;;9.57;8.60;;;;;;;9.26;85.45;99630.78;5011468;27;103446;-66
2021/11/20 10:58:54;;;;;;;8.57;7.60;;;;;;;9.53;84.59;99622.34;5012915;28;102713;-66
2021/11/20 11:01:45;;;;;;;9.63;7.80;;;;;;;9.58;83.45;99626.44;5004374;28;104204;-66
2021/11/20 11:04:32;;;;;;;12.50;8.10;;;;;;;9.36;83.92;99614.47;5021487;28;103338;-70
2021/11/20 11:07:05;;;;;;;8.43;7.53;;;;;;;9.27;85.49;99613.16;5022187;28;102520;-70
2021/11/20 11:09:46;;;;;;;7.97;7.13;;;;;;;9.25;84.68;99607.13;5022627;27;103026;-70
2021/11/20 11:12:25;;;;;;;8.83;7.77;;;;;;;9.33;84.43;99599.66;5002440;28;103235;-69
2021/11/20 11:15:26;;;;;;;8.90;7.87;;;;;;;9.47;83.91;99597.16;5018286;28;103344;-70
2021/11/20 11:18:29;;;;;;;10.70;9.03;;;;;;;9.36;84.24;99594.22;5017719;28;102589;-69
2021/11/20 11:21:33;;;;;;;8.70;7.27;;;;;;;9.24;84.95;99590.47;5021254;28;103959;-70
2021/11/20 11:24:27;;;;;;;7.20;5.70;;;;;;;9.42;84.15;99578.09;5011417;28;103399;-70
2021/11/20 11:27:03;;;;;;;8.63;7.37;;;;;;;9.40;83.62;99574.69;4998301;28;103209;-70
2021/11/20 11:29:58;;;;;;;7.27;6.47;;;;;;;9.42;83.05;99567.53;5020986;27;102511;-71
2021/11/20 11:32:27;;;;;;;9.33;6.50;;;;;;;9.16;84.54;99566.28;5015219;28;102708;-70
2021/11/20 11:34:59;;;;;;;7.43;6.40;;;;;;;9.33;84.22;99555.69;4999717;28;103398;-70
2021/11/20 11:37:35;;;;;;;6.13;5.30;;;;;;;9.51;84.19;99555.63;5006816;27;103247;-66
2021/11/20 11:40:13;;;;;;;7.20;6.50;;;;;;;9.47;82.85;99554.94;4994671;28;102784;-66
2021/11/20 11:42:51;;;;;;;7.50;6.30;;;;;;;9.55;83.47;99552.72;5014143;28;102740;-70
2021/11/20 11:45:40;;;;;;;7.40;5.87;;;;;;;9.31;84.01;99543.53;5015693;28;104126;-70
2021/11/20 11:48:17;;;;;;;8.07;7.27;;;;;;;9.45;83.58;99545.41;5013479;28;103219;-70
2021/11/20 11:51:02;;;;;;;8.03;7.23;;;;;;;9.38;82.92;99534.34;4998657;28;102822;-70
2021/11/20 11:53:38;;;;;;;8.13;6.87;;;;;;;9.29;83.51;99524.31;5016488;28;103871;-66
2021/11/20 11:56:09;;;;;;;11.57;7.60;;;;;;;9.25;83.73;99520.97;5016760;28;103298;-66